Police, Poland
Current Conditions -  °F | °C
As of 2:30 AM on Saturday 20 Dec 2014 (Local Time) from EPSC Reporting Station
Clear Clear  
Wind Chill: 34°   Ceiling: Unl
Heat Index: 41°   Visibility: 6mi
Dew Point: 36°   Wind: 13mph
Humidity: 81%   Direction: 250°WSW
Pressure: 29.74"   Gusts: NA
Location:  53.55°N, 14.56°E
Report Text: EPSC 200030Z 25011KT CAVOK 05/02 Q1007
Loading
Personal Weather Stations






























Interactive Weather Map New forecast layout! Learn more

10-Day Weather Forecast

Advertisements
Track Severe Weather on mobile